createdAt,value
2023-04-28T00:00:34.421Z,94570.00
2023-04-28T00:01:34.288Z,94568.00
2023-04-28T00:02:34.371Z,94570.00
2023-04-28T00:03:34.384Z,94568.00
2023-04-28T00:04:34.309Z,94568.00
2023-04-28T00:05:34.304Z,94568.00
2023-04-28T00:06:34.346Z,94570.00
2023-04-28T00:07:35.289Z,94572.00
2023-04-28T00:08:34.269Z,94570.00
2023-04-28T00:09:34.196Z,94572.00
2023-04-28T00:10:34.244Z,94570.00
2023-04-28T00:11:34.178Z,94570.00
2023-04-28T00:12:35.218Z,94570.00
2023-04-28T00:13:34.307Z,94570.00
2023-04-28T00:14:34.271Z,94568.00
2023-04-28T00:15:34.201Z,94566.00
2023-04-28T00:16:34.275Z,94566.00
2023-04-28T00:17:34.380Z,94566.00
2023-04-28T00:18:34.137Z,94568.00
2023-04-28T00:19:34.150Z,94570.00
2023-04-28T00:20:34.193Z,94568.00
2023-04-28T00:21:34.136Z,94570.00
2023-04-28T00:22:34.182Z,94570.00
2023-04-28T00:23:34.183Z,94572.00
2023-04-28T00:24:34.184Z,94572.00
2023-04-28T00:25:34.117Z,94572.00
2023-04-28T00:26:34.211Z,94574.00
2023-04-28T00:27:34.104Z,94572.00
2023-04-28T00:28:35.086Z,94570.00
2023-04-28T00:29:34.074Z,94570.00
2023-04-28T00:30:34.213Z,94572.00
2023-04-28T00:31:34.118Z,94574.00
2023-04-28T00:32:34.115Z,94572.00
2023-04-28T00:33:34.056Z,94574.00
2023-04-28T00:34:34.036Z,94576.00
2023-04-28T00:35:35.046Z,94570.00
2023-04-28T00:36:34.084Z,94572.00
2023-04-28T00:37:34.011Z,94574.00
2023-04-28T00:38:34.016Z,94574.00
2023-04-28T00:39:34.019Z,94574.00
2023-04-28T00:40:34.018Z,94572.00
2023-04-28T00:41:33.965Z,94568.00
2023-04-28T00:42:33.998Z,94566.00
2023-04-28T00:43:34.049Z,94564.00
2023-04-28T00:44:33.938Z,94566.00
2023-04-28T00:45:34.031Z,94568.00
2023-04-28T00:46:33.997Z,94570.00
2023-04-28T00:47:33.996Z,94572.00
2023-04-28T00:48:33.987Z,94570.00
2023-04-28T00:49:33.922Z,94568.00
2023-04-28T00:50:33.942Z,94564.00
2023-04-28T00:51:34.061Z,94564.00
2023-04-28T00:52:33.938Z,94564.00
2023-04-28T00:53:34.102Z,94566.00
2023-04-28T00:54:33.950Z,94566.00
2023-04-28T00:55:33.978Z,94566.00
2023-04-28T00:56:33.907Z,94566.00
2023-04-28T00:57:33.930Z,94564.00
2023-04-28T00:58:33.953Z,94562.00
2023-04-28T00:59:33.902Z,94562.00
2023-04-28T01:00:33.960Z,94560.00
2023-04-28T01:01:33.946Z,94560.00
2023-04-28T01:02:34.049Z,94562.00
2023-04-28T01:03:34.006Z,94562.00
2023-04-28T01:04:34.228Z,94562.00
2023-04-28T01:05:33.886Z,94562.00
2023-04-28T01:06:33.777Z,94560.00
2023-04-28T01:07:33.868Z,94558.00
2023-04-28T01:08:33.859Z,94556.00
2023-04-28T01:09:33.803Z,94554.00
2023-04-28T01:10:33.881Z,94554.00
2023-04-28T01:11:33.906Z,94556.00
2023-04-28T01:12:33.818Z,94554.00
2023-04-28T01:13:33.877Z,94558.00
2023-04-28T01:14:33.880Z,94554.00
2023-04-28T01:15:33.808Z,94552.00
2023-04-28T01:16:33.799Z,94554.00
2023-04-28T01:17:34.143Z,94548.00
2023-04-28T01:18:33.725Z,94547.00
2023-04-28T01:19:33.739Z,94547.00
2023-04-28T01:20:33.791Z,94545.00
2023-04-28T01:21:34.703Z,94545.00
2023-04-28T01:22:33.760Z,94541.00
2023-04-28T01:23:33.942Z,94543.00
2023-04-28T01:24:33.697Z,94539.00
2023-04-28T01:25:33.769Z,94541.00
2023-04-28T01:26:33.671Z,94535.00
2023-04-28T01:27:33.842Z,94535.00
2023-04-28T01:28:33.768Z,94533.00
2023-04-28T01:29:33.790Z,94535.00
2023-04-28T01:30:33.693Z,94535.00
2023-04-28T01:31:33.684Z,94537.00
2023-04-28T01:32:33.783Z,94535.00
2023-04-28T01:33:33.655Z,94537.00
2023-04-28T01:34:33.679Z,94535.00
2023-04-28T01:35:33.813Z,94537.00
2023-04-28T01:36:37.254Z,94543.00
2023-04-28T01:37:33.825Z,94541.00
2023-04-28T01:38:33.579Z,94543.00
2023-04-28T01:39:33.666Z,94545.00
2023-04-28T01:40:33.579Z,94545.00
2023-04-28T01:41:33.614Z,94543.00
2023-04-28T01:42:33.606Z,94539.00
2023-04-28T01:43:33.544Z,94541.00
2023-04-28T01:44:33.618Z,94543.00
2023-04-28T01:45:33.634Z,94545.00
2023-04-28T01:46:33.588Z,94547.00
2023-04-28T01:47:33.670Z,94547.00
2023-04-28T01:48:33.719Z,94547.00
2023-04-28T01:49:33.488Z,94541.00
2023-04-28T01:50:33.495Z,94541.00
2023-04-28T01:51:33.553Z,94539.00
2023-04-28T01:52:33.507Z,94539.00
2023-04-28T01:53:33.731Z,94541.00
2023-04-28T01:54:33.463Z,94543.00
2023-04-28T01:55:33.582Z,94545.00
2023-04-28T01:56:33.499Z,94543.00
2023-04-28T01:57:33.452Z,94541.00
2023-04-28T01:58:33.422Z,94541.00
2023-04-28T01:59:33.443Z,94539.00
2023-04-28T02:00:33.439Z,94537.00
2023-04-28T02:01:33.434Z,94539.00
2023-04-28T02:02:33.571Z,94537.00
2023-04-28T02:03:33.608Z,94535.00
2023-04-28T02:04:33.478Z,94535.00
2023-04-28T02:05:33.379Z,94533.00
2023-04-28T02:06:33.421Z,94533.00
2023-04-28T02:07:33.500Z,94533.00
2023-04-28T02:08:33.542Z,94531.00
2023-04-28T02:09:33.435Z,94529.00
2023-04-28T02:10:33.435Z,94529.00
2023-04-28T02:11:33.397Z,94527.00
2023-04-28T02:12:33.421Z,94527.00
2023-04-28T02:13:33.359Z,94527.00
2023-04-28T02:14:33.356Z,94519.00
2023-04-28T02:15:33.377Z,94523.00
2023-04-28T02:16:33.554Z,94521.00
2023-04-28T02:17:33.491Z,94523.00
2023-04-28T02:18:33.420Z,94521.00
2023-04-28T02:19:33.297Z,94515.00
2023-04-28T02:20:33.529Z,94517.00
2023-04-28T02:21:33.328Z,94513.00
2023-04-28T02:22:33.270Z,94513.00
2023-04-28T02:23:33.372Z,94511.00
2023-04-28T02:24:33.278Z,94513.00
2023-04-28T02:25:33.330Z,94513.00
2023-04-28T02:26:33.272Z,94515.00
2023-04-28T02:27:33.328Z,94513.00
2023-04-28T02:28:33.219Z,94515.00
2023-04-28T02:29:34.324Z,94515.00
2023-04-28T02:30:34.295Z,94517.00
2023-04-28T02:31:33.341Z,94515.00
2023-04-28T02:32:33.376Z,94517.00
2023-04-28T02:33:33.264Z,94517.00
2023-04-28T02:34:33.185Z,94517.00
2023-04-28T02:35:33.257Z,94515.00
2023-04-28T02:36:33.189Z,94515.00
2023-04-28T02:37:33.326Z,94511.00
2023-04-28T02:38:33.144Z,94507.00
2023-04-28T02:39:33.192Z,94505.00
2023-04-28T02:40:33.138Z,94501.00
2023-04-28T02:41:33.214Z,94496.00
2023-04-28T02:42:33.188Z,94494.00
2023-04-28T02:43:33.153Z,94492.00
2023-04-28T02:44:33.114Z,94488.00
2023-04-28T02:45:33.217Z,94488.00
2023-04-28T02:46:33.205Z,94486.00
2023-04-28T02:47:33.314Z,94484.00
2023-04-28T02:48:33.116Z,94484.00
2023-04-28T02:49:33.088Z,94484.00
2023-04-28T02:50:33.050Z,94482.00
2023-04-28T02:51:33.054Z,94480.00
2023-04-28T02:52:33.254Z,94478.00
2023-04-28T02:53:33.091Z,94480.00
2023-04-28T02:54:33.086Z,94478.00
2023-04-28T02:55:33.110Z,94478.00
2023-04-28T02:56:33.243Z,94482.00
2023-04-28T02:57:33.058Z,94480.00
2023-04-28T02:58:33.002Z,94478.00
2023-04-28T02:59:33.099Z,94478.00
2023-04-28T03:00:33.008Z,94478.00
2023-04-28T03:01:33.060Z,94480.00
2023-04-28T03:02:33.086Z,94480.00
2023-04-28T03:03:33.262Z,94478.00
2023-04-28T03:04:33.206Z,94480.00
2023-04-28T03:05:33.091Z,94476.00
2023-04-28T03:06:33.147Z,94478.00
2023-04-28T03:07:32.944Z,94474.00
2023-04-28T03:08:33.151Z,94476.00
2023-04-28T03:09:32.979Z,94476.00
2023-04-28T03:10:32.959Z,94474.00
2023-04-28T03:11:32.979Z,94476.00
2023-04-28T03:12:33.043Z,94478.00
2023-04-28T03:13:32.904Z,94474.00
2023-04-28T03:14:32.890Z,94474.00
2023-04-28T03:15:32.892Z,94470.00
2023-04-28T03:16:33.044Z,94466.00
2023-04-28T03:17:32.918Z,94464.00
2023-04-28T03:18:32.861Z,94460.00
2023-04-28T03:19:32.989Z,94460.00
2023-04-28T03:20:32.952Z,94462.00
2023-04-28T03:21:32.978Z,94462.00
2023-04-28T03:22:32.862Z,94466.00
2023-04-28T03:23:32.911Z,94470.00
2023-04-28T03:24:32.791Z,94472.00
2023-04-28T03:25:32.894Z,94472.00
2023-04-28T03:26:33.035Z,94472.00
2023-04-28T03:27:32.876Z,94472.00
2023-04-28T03:28:32.813Z,94472.00
2023-04-28T03:29:32.913Z,94470.00
2023-04-28T03:30:32.860Z,94470.00
2023-04-28T03:31:32.865Z,94470.00
2023-04-28T03:32:32.836Z,94472.00
2023-04-28T03:33:32.777Z,94470.00
2023-04-28T03:34:43.421Z,94472.00
2023-04-28T03:35:33.062Z,94470.00
2023-04-28T03:36:33.291Z,94470.00
2023-04-28T03:37:33.497Z,94468.00
2023-04-28T03:38:32.909Z,94468.00
2023-04-28T03:39:32.793Z,94468.00
2023-04-28T03:40:32.732Z,94466.00
2023-04-28T03:41:32.743Z,94468.00
2023-04-28T03:42:32.837Z,94468.00
2023-04-28T03:43:32.723Z,94462.00
2023-04-28T03:44:32.736Z,94462.00
2023-04-28T03:45:32.889Z,94462.00
2023-04-28T03:46:32.866Z,94464.00
2023-04-28T03:47:32.602Z,94466.00
2023-04-28T03:48:32.701Z,94464.00
2023-04-28T03:49:32.689Z,94466.00
2023-04-28T03:50:33.661Z,94462.00
2023-04-28T03:51:32.736Z,94460.00
2023-04-28T03:52:32.614Z,94460.00
2023-04-28T03:53:32.608Z,94460.00
2023-04-28T03:54:32.650Z,94458.00
2023-04-28T03:55:37.205Z,94458.00
2023-04-28T03:56:32.606Z,94458.00
2023-04-28T03:57:32.599Z,94460.00
2023-04-28T03:58:32.603Z,94460.00
2023-04-28T03:59:32.577Z,94460.00
2023-04-28T04:00:32.659Z,94460.00
2023-04-28T04:01:32.672Z,94462.00
2023-04-28T04:02:32.726Z,94464.00
2023-04-28T04:03:32.805Z,94466.00
2023-04-28T04:04:32.773Z,94466.00
2023-04-28T04:05:32.560Z,94464.00
2023-04-28T04:06:32.575Z,94464.00
2023-04-28T04:07:32.591Z,94464.00
2023-04-28T04:08:32.504Z,94462.00
2023-04-28T04:09:32.557Z,94464.00
2023-04-28T04:10:32.663Z,94464.00
2023-04-28T04:11:32.649Z,94464.00
2023-04-28T04:12:32.425Z,94466.00
2023-04-28T04:13:32.571Z,94470.00
2023-04-28T04:14:32.506Z,94472.00
2023-04-28T04:15:32.538Z,94472.00
2023-04-28T04:16:32.475Z,94474.00
2023-04-28T04:17:32.491Z,94476.00
2023-04-28T04:18:32.419Z,94480.00
2023-04-28T04:19:32.419Z,94478.00
2023-04-28T04:20:32.442Z,94480.00
2023-04-28T04:21:32.389Z,94480.00
2023-04-28T04:22:32.429Z,94480.00
2023-04-28T04:23:32.436Z,94482.00
2023-04-28T04:24:32.373Z,94480.00
2023-04-28T04:25:32.446Z,94480.00
2023-04-28T04:26:33.352Z,94480.00
2023-04-28T04:27:32.444Z,94478.00
2023-04-28T04:28:32.410Z,94476.00
2023-04-28T04:29:32.304Z,94478.00
2023-04-28T04:30:32.305Z,94476.00
2023-04-28T04:31:32.498Z,94478.00
2023-04-28T04:32:32.423Z,94480.00
2023-04-28T04:33:32.365Z,94480.00
2023-04-28T04:34:32.291Z,94478.00
2023-04-28T04:35:32.242Z,94478.00
2023-04-28T04:36:32.311Z,94478.00
2023-04-28T04:37:32.308Z,94480.00
2023-04-28T04:38:32.349Z,94480.00
2023-04-28T04:39:32.314Z,94480.00
2023-04-28T04:40:32.300Z,94482.00
2023-04-28T04:41:32.275Z,94484.00
2023-04-28T04:42:32.229Z,94482.00
2023-04-28T04:43:32.325Z,94480.00
2023-04-28T04:44:33.287Z,94478.00
2023-04-28T04:45:32.268Z,94478.00
2023-04-28T04:46:32.311Z,94478.00
2023-04-28T04:47:32.305Z,94482.00
2023-04-28T04:48:32.249Z,94486.00
2023-04-28T04:49:32.392Z,94490.00
2023-04-28T04:50:32.194Z,94492.00
2023-04-28T04:51:32.204Z,94492.00
2023-04-28T04:52:32.146Z,94490.00
2023-04-28T04:53:32.160Z,94494.00
2023-04-28T04:54:32.197Z,94498.00
2023-04-28T04:55:32.219Z,94500.00
2023-04-28T04:56:32.309Z,94507.00
2023-04-28T04:57:32.077Z,94511.00
2023-04-28T04:58:32.091Z,94511.00
2023-04-28T04:59:32.174Z,94513.00
2023-04-28T05:00:32.095Z,94513.00
2023-04-28T05:01:32.260Z,94511.00
2023-04-28T05:02:32.187Z,94509.00
2023-04-28T05:03:32.248Z,94511.00
2023-04-28T05:04:32.315Z,94511.00
2023-04-28T05:05:32.261Z,94513.00
2023-04-28T05:06:32.130Z,94515.00
2023-04-28T05:07:32.112Z,94519.00
2023-04-28T05:08:33.070Z,94519.00
2023-04-28T05:09:32.108Z,94521.00
2023-04-28T05:10:32.055Z,94525.00
2023-04-28T05:11:32.135Z,94525.00
2023-04-28T05:12:32.056Z,94525.00
2023-04-28T05:13:33.058Z,94529.00
2023-04-28T05:14:32.036Z,94529.00
2023-04-28T05:15:32.143Z,94533.00
2023-04-28T05:16:32.093Z,94535.00
2023-04-28T05:17:31.982Z,94537.00
2023-04-28T05:18:32.033Z,94537.00
2023-04-28T05:19:32.079Z,94537.00
2023-04-28T05:20:32.095Z,94539.00
2023-04-28T05:21:33.129Z,94535.00
2023-04-28T05:22:31.983Z,94537.00
2023-04-28T05:23:32.138Z,94541.00
2023-04-28T05:24:32.274Z,94545.00
2023-04-28T05:25:32.238Z,94543.00
2023-04-28T05:26:32.460Z,94545.00
2023-04-28T05:27:32.864Z,94548.00
2023-04-28T05:28:32.514Z,94548.00
2023-04-28T05:29:32.716Z,94543.00
2023-04-28T05:30:32.512Z,94548.00
2023-04-28T05:31:33.392Z,94548.00
2023-04-28T05:33:51.924Z,94554.00
2023-04-28T05:34:51.339Z,94552.00
2023-04-28T05:35:54.780Z,94550.00
2023-04-28T05:39:29.033Z,94560.00
2023-04-28T05:41:39.792Z,94560.00
2023-04-28T05:45:19.933Z,94564.00
2023-04-28T05:47:38.514Z,94572.00
2023-04-28T05:51:15.380Z,94574.00
2023-04-28T05:53:33.748Z,94576.00
2023-04-28T06:05:39.652Z,94584.00
2023-04-28T06:09:14.576Z,94594.00
2023-04-28T06:10:15.317Z,94592.00
2023-04-28T06:18:33.486Z,94596.00
2023-04-28T06:19:33.877Z,94598.00
2023-04-28T06:20:33.542Z,94601.00
2023-04-28T06:21:32.129Z,94598.00
2023-04-28T06:22:34.976Z,94599.00
2023-04-28T06:23:33.766Z,94599.00
2023-04-28T06:24:33.272Z,94599.00
2023-04-28T06:25:32.473Z,94601.00
2023-04-28T06:26:32.542Z,94601.00
2023-04-28T06:27:35.831Z,94601.00
2023-04-28T06:28:32.458Z,94601.00
2023-04-28T06:30:56.414Z,94601.00
2023-04-28T06:31:53.152Z,94603.00
2023-04-28T06:32:51.652Z,94603.00
2023-04-28T06:33:52.380Z,94603.00
2023-04-28T06:36:14.282Z,94605.00
2023-04-28T06:39:25.385Z,94607.00
2023-04-28T06:40:24.573Z,94609.00
2023-04-28T06:41:20.615Z,94611.00
2023-04-28T06:42:21.489Z,94611.00
2023-04-28T06:43:21.031Z,94611.00
2023-04-28T06:44:19.942Z,94609.00
2023-04-28T06:45:19.828Z,94611.00
2023-04-28T06:46:20.289Z,94613.00
2023-04-28T06:47:20.169Z,94613.00
2023-04-28T06:49:51.438Z,94615.00
2023-04-28T06:50:51.263Z,94611.00
2023-04-28T06:53:12.853Z,94609.00
2023-04-28T06:54:11.581Z,94605.00
2023-04-28T06:56:29.324Z,94609.00
2023-04-28T06:57:32.033Z,94609.00
2023-04-28T06:58:28.348Z,94609.00
2023-04-28T06:59:31.074Z,94609.00
2023-04-28T07:01:50.887Z,94613.00
2023-04-28T07:04:07.533Z,94615.00
2023-04-28T07:06:26.054Z,94615.00
2023-04-28T07:07:25.508Z,94613.00
2023-04-28T07:08:26.350Z,94611.00
2023-04-28T07:09:26.404Z,94609.00
2023-04-28T07:10:27.374Z,94611.00
2023-04-28T07:11:25.740Z,94611.00
2023-04-28T07:12:25.440Z,94611.00
2023-04-28T07:13:25.221Z,94611.00
2023-04-28T07:14:25.209Z,94609.00
2023-04-28T07:15:25.337Z,94607.00
2023-04-28T07:16:25.675Z,94605.00
2023-04-28T07:17:25.181Z,94607.00
2023-04-28T07:18:25.309Z,94611.00
2023-04-28T07:19:25.238Z,94609.00
2023-04-28T07:20:25.296Z,94611.00
2023-04-28T07:22:45.732Z,94617.00
2023-04-28T07:25:21.220Z,94617.00
2023-04-28T07:26:18.293Z,94615.00
2023-04-28T07:30:56.939Z,94615.00
2023-04-28T07:32:06.697Z,94611.00
2023-04-28T07:33:01.420Z,94611.00
2023-04-28T07:38:12.640Z,94633.00
2023-04-28T07:41:17.509Z,94635.00
2023-04-28T07:42:18.446Z,94635.00
2023-04-28T07:43:16.898Z,94637.00
2023-04-28T07:45:34.025Z,94635.00
2023-04-28T07:48:53.469Z,94635.00
2023-04-28T07:51:01.142Z,94637.00
2023-04-28T07:51:52.114Z,94635.00
2023-04-28T07:52:51.317Z,94635.00
2023-04-28T07:53:51.494Z,94637.00
2023-04-28T07:54:50.774Z,94633.00
2023-04-28T07:55:51.170Z,94633.00
2023-04-28T07:56:59.177Z,94637.00
2023-04-28T07:59:10.298Z,94633.00
2023-04-28T08:00:10.055Z,94637.00
2023-04-28T08:01:11.311Z,94639.00
2023-04-28T08:02:11.390Z,94641.00
2023-04-28T08:03:10.082Z,94641.00
2023-04-28T08:04:09.952Z,94641.00
2023-04-28T08:06:23.269Z,94641.00
2023-04-28T08:07:10.876Z,94639.00
2023-04-28T08:08:11.749Z,94641.00
2023-04-28T08:09:10.647Z,94643.00
2023-04-28T08:10:10.270Z,94645.00
2023-04-28T08:12:29.664Z,94643.00
2023-04-28T08:13:29.409Z,94645.00
2023-04-28T08:14:28.560Z,94643.00
2023-04-28T08:15:28.667Z,94645.00
2023-04-28T08:18:48.078Z,94647.00
2023-04-28T08:20:00.674Z,94647.00
2023-04-28T08:20:48.242Z,94647.00
2023-04-28T08:21:47.645Z,94647.00
2023-04-28T08:22:47.444Z,94647.00
2023-04-28T08:25:08.782Z,94648.00
2023-04-28T08:27:25.759Z,94648.00
2023-04-28T08:28:28.184Z,94650.00
2023-04-28T08:31:05.005Z,94652.00
2023-04-28T08:32:04.854Z,94652.00
2023-04-28T08:33:06.248Z,94648.00
2023-04-28T08:34:04.738Z,94650.00
2023-04-28T08:35:04.704Z,94648.00
2023-04-28T08:36:06.253Z,94652.00
2023-04-28T08:37:05.680Z,94650.00
2023-04-28T08:38:04.986Z,94645.00
2023-04-28T08:39:04.813Z,94645.00
2023-04-28T08:40:04.713Z,94645.00
2023-04-28T08:41:05.311Z,94643.00
2023-04-28T08:42:06.400Z,94641.00
2023-04-28T08:43:05.056Z,94641.00
2023-04-28T08:44:04.876Z,94643.00
2023-04-28T08:45:05.286Z,94641.00
2023-04-28T08:46:05.151Z,94643.00
2023-04-28T08:47:04.891Z,94645.00
2023-04-28T08:48:05.003Z,94647.00
2023-04-28T08:49:05.360Z,94648.00
2023-04-28T08:50:05.979Z,94647.00
2023-04-28T08:51:05.149Z,94647.00
2023-04-28T08:52:07.738Z,94647.00
2023-04-28T08:53:09.386Z,94643.00
2023-04-28T08:56:01.364Z,94643.00
2023-04-28T08:57:00.810Z,94641.00
2023-04-28T08:58:05.704Z,94641.00
2023-04-28T08:59:00.161Z,94641.00
2023-04-28T09:00:00.309Z,94641.00
2023-04-28T09:01:00.102Z,94647.00
2023-04-28T09:02:03.316Z,94647.00
2023-04-28T09:04:22.460Z,94648.00
2023-04-28T09:05:18.868Z,94643.00
2023-04-28T09:06:20.294Z,94643.00
2023-04-28T09:07:19.181Z,94641.00
2023-04-28T09:08:18.857Z,94643.00
2023-04-28T09:09:19.571Z,94641.00
2023-04-28T09:10:18.237Z,94641.00
2023-04-28T09:11:18.427Z,94639.00
2023-04-28T09:12:23.342Z,94637.00
2023-04-28T09:13:18.709Z,94637.00
2023-04-28T09:14:18.560Z,94637.00
2023-04-28T09:15:18.288Z,94635.00
2023-04-28T09:16:20.237Z,94635.00
2023-04-28T09:17:18.336Z,94635.00
2023-04-28T09:18:18.741Z,94635.00
2023-04-28T09:19:18.134Z,94633.00
2023-04-28T09:20:19.504Z,94633.00
2023-04-28T09:21:19.133Z,94625.00
2023-04-28T09:22:25.753Z,94633.00
2023-04-28T09:23:25.316Z,94623.00
2023-04-28T09:25:37.631Z,94625.00
2023-04-28T09:26:39.452Z,94625.00
2023-04-28T09:27:40.299Z,94623.00
2023-04-28T09:28:38.192Z,94623.00
2023-04-28T09:29:38.019Z,94621.00
2023-04-28T09:30:38.147Z,94625.00
2023-04-28T09:31:37.109Z,94621.00
2023-04-28T09:32:37.203Z,94633.00
2023-04-28T09:33:37.182Z,94633.00
2023-04-28T09:34:37.184Z,94635.00
2023-04-28T09:35:38.075Z,94633.00
2023-04-28T09:36:37.046Z,94635.00
2023-04-28T09:37:37.056Z,94635.00
2023-04-28T09:38:37.202Z,94635.00
2023-04-28T09:39:37.141Z,94635.00
2023-04-28T09:40:37.051Z,94635.00
2023-04-28T09:41:37.052Z,94637.00
2023-04-28T09:42:37.367Z,94633.00
2023-04-28T09:43:37.300Z,94633.00
2023-04-28T09:44:38.175Z,94623.00
2023-04-28T09:45:38.607Z,94633.00
2023-04-28T09:46:46.058Z,94623.00
2023-04-28T09:47:38.952Z,94635.00
2023-04-28T09:48:37.781Z,94639.00
2023-04-28T09:49:37.421Z,94643.00
2023-04-28T09:50:37.697Z,94645.00
2023-04-28T09:51:37.465Z,94643.00
2023-04-28T09:52:39.550Z,94643.00
2023-04-28T09:53:38.017Z,94641.00
2023-04-28T09:54:37.764Z,94643.00
2023-04-28T09:55:37.235Z,94643.00
2023-04-28T09:56:37.621Z,94645.00
2023-04-28T09:57:37.877Z,94643.00
2023-04-28T09:58:37.584Z,94643.00
2023-04-28T09:59:40.080Z,94643.00
2023-04-28T10:00:38.299Z,94641.00
2023-04-28T10:01:37.335Z,94639.00
2023-04-28T10:03:42.069Z,94637.00
2023-04-28T10:04:40.154Z,94635.00
2023-04-28T10:05:38.336Z,94633.00
2023-04-28T10:06:37.342Z,94623.00
2023-04-28T10:07:37.471Z,94621.00
2023-04-28T10:08:38.921Z,94621.00
2023-04-28T10:09:41.618Z,94623.00
2023-04-28T10:10:37.481Z,94623.00
2023-04-28T10:11:37.633Z,94621.00
2023-04-28T10:12:40.426Z,94625.00
2023-04-28T10:13:37.705Z,94625.00
2023-04-28T10:14:40.216Z,94633.00
2023-04-28T10:15:37.548Z,94635.00
2023-04-28T10:16:37.871Z,94633.00
2023-04-28T10:17:38.428Z,94635.00
2023-04-28T10:18:37.492Z,94623.00
2023-04-28T10:19:38.162Z,94623.00
2023-04-28T10:20:37.599Z,94619.00
2023-04-28T10:21:37.487Z,94617.00
2023-04-28T10:22:38.584Z,94613.00
2023-04-28T10:23:37.669Z,94613.00
2023-04-28T10:24:37.666Z,94615.00
2023-04-28T10:25:38.679Z,94615.00
2023-04-28T10:26:37.754Z,94617.00
2023-04-28T10:27:37.797Z,94615.00
2023-04-28T10:28:37.938Z,94615.00
2023-04-28T10:29:37.942Z,94613.00
2023-04-28T10:30:38.205Z,94611.00
2023-04-28T10:31:39.039Z,94609.00
2023-04-28T10:32:39.186Z,94607.00
2023-04-28T10:33:38.724Z,94607.00
2023-04-28T10:34:38.096Z,94603.00
2023-04-28T10:35:38.200Z,94603.00
2023-04-28T10:36:38.222Z,94601.00
2023-04-28T10:37:38.283Z,94601.00
2023-04-28T10:38:38.202Z,94596.00
2023-04-28T10:39:38.323Z,94594.00
2023-04-28T10:40:38.272Z,94594.00
2023-04-28T10:41:38.364Z,94592.00
2023-04-28T10:42:38.292Z,94592.00
2023-04-28T10:43:38.608Z,94590.00
2023-04-28T10:44:38.321Z,94586.00
2023-04-28T10:45:38.343Z,94590.00
2023-04-28T10:46:38.324Z,94590.00
2023-04-28T10:47:38.384Z,94590.00
2023-04-28T10:48:38.338Z,94588.00
2023-04-28T10:49:38.309Z,94586.00
2023-04-28T10:50:39.439Z,94584.00
2023-04-28T10:51:38.354Z,94584.00
2023-04-28T10:52:38.551Z,94582.00
2023-04-28T10:53:38.363Z,94582.00
2023-04-28T10:54:38.363Z,94582.00
2023-04-28T10:55:38.366Z,94582.00
2023-04-28T10:56:39.835Z,94582.00
2023-04-28T10:57:38.316Z,94580.00
2023-04-28T10:58:38.431Z,94578.00
2023-04-28T10:59:38.350Z,94576.00
2023-04-28T11:00:38.355Z,94574.00
2023-04-28T11:01:38.417Z,94576.00
2023-04-28T11:02:40.407Z,94574.00
2023-04-28T11:03:38.494Z,94576.00
2023-04-28T11:04:38.482Z,94578.00
2023-04-28T11:05:38.313Z,94574.00
2023-04-28T11:06:38.333Z,94574.00
2023-04-28T11:07:38.263Z,94570.00
2023-04-28T11:08:39.179Z,94566.00
2023-04-28T11:09:38.707Z,94564.00
2023-04-28T11:10:38.208Z,94564.00
2023-04-28T11:11:38.263Z,94562.00
2023-04-28T11:12:39.213Z,94560.00
2023-04-28T11:13:41.248Z,94560.00
2023-04-28T11:14:38.923Z,94552.00
2023-04-28T11:15:38.711Z,94548.00
2023-04-28T11:16:38.341Z,94550.00
2023-04-28T11:17:38.290Z,94548.00
2023-04-28T11:18:39.162Z,94548.00
2023-04-28T11:19:38.237Z,94548.00
2023-04-28T11:20:38.278Z,94548.00
2023-04-28T11:21:38.754Z,94543.00
2023-04-28T11:22:38.200Z,94543.00
2023-04-28T11:23:38.247Z,94539.00
2023-04-28T11:24:38.697Z,94537.00
2023-04-28T11:25:38.685Z,94539.00
2023-04-28T11:26:38.160Z,94537.00
2023-04-28T11:27:38.153Z,94537.00
2023-04-28T11:28:38.189Z,94529.00
2023-04-28T11:29:38.760Z,94527.00
2023-04-28T11:30:38.724Z,94523.00
2023-04-28T11:31:38.176Z,94531.00
2023-04-28T11:32:38.223Z,94539.00
2023-04-28T11:33:38.131Z,94547.00
2023-04-28T11:34:38.202Z,94556.00
2023-04-28T11:35:38.113Z,94562.00
2023-04-28T11:36:38.423Z,94564.00
2023-04-28T11:37:38.200Z,94562.00
2023-04-28T11:38:38.141Z,94560.00
2023-04-28T11:39:38.104Z,94558.00
2023-04-28T11:40:38.053Z,94556.00
2023-04-28T11:41:38.078Z,94556.00
2023-04-28T11:42:38.133Z,94552.00
2023-04-28T11:43:46.820Z,94552.00
2023-04-28T11:44:39.016Z,94552.00
2023-04-28T11:45:38.044Z,94556.00
2023-04-28T11:46:37.960Z,94558.00
2023-04-28T11:47:37.988Z,94560.00
2023-04-28T11:48:38.140Z,94562.00
2023-04-28T11:49:39.033Z,94556.00
2023-04-28T11:50:37.932Z,94552.00
2023-04-28T11:51:37.992Z,94556.00
2023-04-28T11:52:38.703Z,94554.00
2023-04-28T11:53:37.899Z,94552.00
2023-04-28T11:54:37.902Z,94548.00
2023-04-28T11:55:38.782Z,94548.00
2023-04-28T11:56:37.888Z,94548.00
2023-04-28T11:57:38.873Z,94547.00
2023-04-28T11:58:37.883Z,94545.00
2023-04-28T11:59:39.105Z,94545.00
2023-04-28T12:00:37.908Z,94545.00
2023-04-28T12:01:37.892Z,94543.00
2023-04-28T12:02:39.025Z,94541.00
2023-04-28T12:03:38.156Z,94543.00
2023-04-28T12:04:38.183Z,94543.00
2023-04-28T12:05:39.029Z,94541.00
2023-04-28T12:06:38.187Z,94543.00
2023-04-28T12:07:38.068Z,94547.00
2023-04-28T12:08:38.263Z,94548.00
2023-04-28T12:09:38.283Z,94545.00
2023-04-28T12:10:38.710Z,94547.00
2023-04-28T12:11:38.197Z,94548.00
2023-04-28T12:12:50.038Z,94547.00
2023-04-28T12:13:39.158Z,94547.00
2023-04-28T12:14:38.714Z,94548.00
2023-04-28T12:15:38.206Z,94548.00
2023-04-28T12:16:38.239Z,94547.00
2023-04-28T12:17:38.317Z,94547.00
2023-04-28T12:18:38.715Z,94545.00
2023-04-28T12:19:38.158Z,94543.00
2023-04-28T12:20:38.803Z,94541.00
2023-04-28T12:21:38.648Z,94535.00
2023-04-28T12:22:38.382Z,94537.00
2023-04-28T12:23:38.218Z,94541.00
2023-04-28T12:24:38.219Z,94541.00
2023-04-28T12:25:38.288Z,94543.00
2023-04-28T12:26:38.140Z,94545.00
2023-04-28T12:27:38.829Z,94545.00
2023-04-28T12:28:38.169Z,94545.00
2023-04-28T12:29:38.046Z,94543.00
2023-04-28T12:30:38.233Z,94541.00
2023-04-28T12:31:38.032Z,94548.00
2023-04-28T12:32:38.327Z,94547.00
2023-04-28T12:33:38.557Z,94548.00
2023-04-28T12:34:38.035Z,94545.00
2023-04-28T12:35:38.005Z,94545.00
2023-04-28T12:36:37.978Z,94541.00
2023-04-28T12:37:37.989Z,94541.00
2023-04-28T12:38:38.041Z,94539.00
2023-04-28T12:39:39.714Z,94543.00
2023-04-28T12:40:38.162Z,94539.00
2023-04-28T12:41:38.032Z,94537.00
2023-04-28T12:42:38.088Z,94537.00
2023-04-28T12:43:38.201Z,94541.00
2023-04-28T12:44:38.367Z,94545.00
2023-04-28T12:45:38.997Z,94541.00
2023-04-28T12:46:38.809Z,94539.00
2023-04-28T12:47:38.407Z,94537.00
2023-04-28T12:48:38.356Z,94537.00
2023-04-28T12:49:38.793Z,94539.00
2023-04-28T12:50:38.420Z,94541.00
2023-04-28T12:51:39.073Z,94539.00
2023-04-28T12:52:38.478Z,94541.00
2023-04-28T12:53:38.474Z,94537.00
2023-04-28T12:54:38.590Z,94539.00
2023-04-28T12:55:38.563Z,94543.00
2023-04-28T12:56:38.622Z,94543.00
2023-04-28T12:57:39.639Z,94541.00
2023-04-28T12:58:38.650Z,94539.00
2023-04-28T12:59:38.631Z,94539.00
2023-04-28T13:00:38.675Z,94539.00
2023-04-28T13:01:38.857Z,94539.00
2023-04-28T13:02:38.850Z,94537.00
2023-04-28T13:03:39.619Z,94537.00
2023-04-28T13:04:39.157Z,94535.00